createdAt,value
2024-01-08T00:01:55.468Z,31.20
2024-01-08T00:04:21.968Z,31.30
2024-01-08T00:06:48.412Z,30.80
2024-01-08T00:09:14.977Z,27.80
2024-01-08T00:11:41.898Z,31.30
2024-01-08T00:14:08.429Z,30.10
2024-01-08T00:16:34.907Z,30.70
2024-01-08T00:19:01.581Z,31.80
2024-01-08T00:21:28.343Z,31.90
2024-01-08T00:23:55.849Z,30.30
2024-01-08T00:26:22.532Z,30.70
2024-01-08T00:28:49.072Z,30.30
2024-01-08T00:31:15.600Z,34.30
2024-01-08T00:33:42.222Z,30.10
2024-01-08T00:36:08.722Z,30.50
2024-01-08T00:38:35.184Z,28.60
2024-01-08T00:41:01.878Z,28.20
2024-01-08T00:43:28.307Z,29.80
2024-01-08T00:45:54.811Z,31.00
2024-01-08T00:48:21.307Z,31.90
2024-01-08T00:50:49.235Z,31.70
2024-01-08T00:53:15.778Z,31.60
2024-01-08T00:55:42.177Z,29.50
2024-01-08T00:58:08.631Z,31.40
2024-01-08T01:00:35.156Z,28.50
2024-01-08T01:03:01.691Z,30.80
2024-01-08T01:05:28.318Z,31.10
2024-01-08T01:07:54.808Z,31.40
2024-01-08T01:10:21.307Z,31.00
2024-01-08T01:12:47.734Z,30.10
2024-01-08T01:15:14.236Z,31.80
2024-01-08T01:17:41.627Z,29.40
2024-01-08T01:20:08.892Z,29.10
2024-01-08T01:22:35.349Z,30.60
2024-01-08T01:25:01.823Z,28.90
2024-01-08T01:27:28.279Z,29.10
2024-01-08T01:29:54.749Z,28.40
2024-01-08T01:32:21.300Z,28.10
2024-01-08T01:34:47.803Z,26.40
2024-01-08T01:37:14.604Z,28.90
2024-01-08T01:39:41.114Z,29.00
2024-01-08T01:42:07.588Z,29.90
2024-01-08T01:44:34.173Z,29.40
2024-01-08T01:47:01.128Z,28.00
2024-01-08T01:49:27.751Z,29.30
2024-01-08T01:51:54.165Z,27.40
2024-01-08T01:54:22.285Z,30.00
2024-01-08T01:56:53.839Z,28.50
2024-01-08T01:59:20.369Z,27.90
2024-01-08T02:01:46.940Z,27.90
2024-01-08T02:04:17.888Z,27.20
2024-01-08T02:06:44.970Z,28.50
2024-01-08T02:09:11.543Z,29.30
2024-01-08T02:11:38.041Z,28.00
2024-01-08T02:14:04.622Z,28.00
2024-01-08T02:16:31.079Z,26.10
2024-01-08T02:18:57.658Z,27.40
2024-01-08T02:21:24.112Z,26.30
2024-01-08T02:23:50.549Z,27.90
2024-01-08T02:26:17.032Z,27.30
2024-01-08T02:28:43.493Z,28.20
2024-01-08T02:31:09.900Z,27.20
2024-01-08T02:33:36.323Z,28.00
2024-01-08T02:36:02.766Z,27.20
2024-01-08T02:38:29.564Z,27.10
2024-01-08T02:40:58.503Z,27.80
2024-01-08T02:43:25.739Z,26.30
2024-01-08T02:45:52.660Z,24.90
2024-01-08T02:48:19.228Z,25.90
2024-01-08T02:50:45.727Z,24.40
2024-01-08T02:53:12.169Z,25.80
2024-01-08T02:55:38.597Z,25.00
2024-01-08T02:58:05.561Z,25.90
2024-01-08T03:00:32.412Z,25.90
2024-01-08T03:02:58.927Z,26.00
2024-01-08T03:05:25.896Z,24.50
2024-01-08T03:07:52.484Z,24.10
2024-01-08T03:10:18.951Z,23.90
2024-01-08T03:12:45.411Z,23.30
2024-01-08T03:15:11.819Z,26.20
2024-01-08T03:17:38.343Z,25.20
2024-01-08T03:20:05.635Z,23.60
2024-01-08T03:22:32.092Z,23.40
2024-01-08T03:24:59.221Z,23.00
2024-01-08T03:27:25.666Z,23.20
2024-01-08T03:29:52.522Z,24.10
2024-01-08T03:32:19.189Z,22.90
2024-01-08T03:34:47.388Z,23.10
2024-01-08T03:37:13.823Z,25.70
2024-01-08T03:39:40.279Z,23.00
2024-01-08T03:42:06.836Z,22.60
2024-01-08T03:44:33.549Z,21.70
2024-01-08T03:46:59.995Z,24.10
2024-01-08T03:49:27.508Z,24.40
2024-01-08T03:51:53.961Z,21.90
2024-01-08T03:54:20.612Z,22.20
2024-01-08T03:56:47.162Z,23.10
2024-01-08T03:59:14.809Z,23.90
2024-01-08T04:01:45.715Z,22.80
2024-01-08T04:04:12.825Z,21.40
2024-01-08T04:06:39.504Z,21.00
2024-01-08T04:09:05.927Z,23.00
2024-01-08T04:11:32.403Z,22.10
2024-01-08T04:13:59.634Z,21.30
2024-01-08T04:16:26.119Z,21.80
2024-01-08T04:18:52.674Z,23.10
2024-01-08T04:21:19.153Z,20.60
2024-01-08T04:23:45.552Z,20.90
2024-01-08T04:26:15.756Z,20.80
2024-01-08T04:28:42.652Z,20.80
2024-01-08T04:31:09.845Z,21.00
2024-01-08T04:33:36.340Z,21.20
2024-01-08T04:36:04.894Z,20.30
2024-01-08T04:38:31.391Z,20.00
2024-01-08T04:40:57.879Z,20.60
2024-01-08T04:43:24.369Z,20.70
2024-01-08T04:45:50.762Z,22.00
2024-01-08T04:48:17.248Z,19.40
2024-01-08T04:50:43.720Z,21.50
2024-01-08T04:53:10.242Z,20.40
2024-01-08T04:55:37.711Z,19.50
2024-01-08T04:58:06.969Z,21.60
2024-01-08T05:00:33.388Z,18.80
2024-01-08T05:02:59.810Z,18.90
2024-01-08T05:05:26.343Z,20.60
2024-01-08T05:07:52.826Z,20.00
2024-01-08T05:10:19.459Z,19.10
2024-01-08T05:12:45.850Z,19.20
2024-01-08T05:15:12.469Z,18.40
2024-01-08T05:17:39.091Z,19.70
2024-01-08T05:20:06.381Z,19.40
2024-01-08T05:22:32.786Z,21.20
2024-01-08T05:24:59.368Z,19.60
2024-01-08T05:27:25.775Z,19.40
2024-01-08T05:29:52.681Z,20.20
2024-01-08T05:32:19.137Z,18.40
2024-01-08T05:34:45.563Z,18.20
2024-01-08T05:37:12.005Z,20.40
2024-01-08T05:39:38.447Z,21.00
2024-01-08T05:42:05.173Z,19.40
2024-01-08T05:44:31.641Z,21.00
2024-01-08T05:46:58.096Z,19.40
2024-01-08T05:49:25.066Z,17.60
2024-01-08T05:51:51.533Z,21.00
2024-01-08T05:54:17.984Z,20.70
2024-01-08T05:56:44.451Z,17.70
2024-01-08T05:59:10.948Z,18.80
2024-01-08T06:01:37.542Z,18.50
2024-01-08T06:04:04.181Z,18.00
2024-01-08T06:06:30.802Z,17.50
2024-01-08T06:08:57.248Z,17.70
2024-01-08T06:11:25.313Z,17.50
2024-01-08T06:13:52.842Z,18.00
2024-01-08T06:16:19.380Z,17.80
2024-01-08T06:18:45.955Z,16.40
2024-01-08T06:21:12.530Z,17.30
2024-01-08T06:23:38.965Z,16.30
2024-01-08T06:26:05.607Z,17.10
2024-01-08T06:28:33.552Z,17.40
2024-01-08T06:31:06.282Z,16.70
2024-01-08T06:33:34.099Z,14.80
2024-01-08T06:36:00.544Z,14.80
2024-01-08T06:38:27.294Z,16.00
2024-01-08T06:40:54.157Z,16.30
2024-01-08T06:43:20.824Z,17.30
2024-01-08T06:45:47.237Z,15.10
2024-01-08T06:48:13.713Z,16.30
2024-01-08T06:50:41.424Z,15.00
2024-01-08T06:53:07.939Z,17.90
2024-01-08T06:55:34.347Z,16.50
2024-01-08T06:58:00.893Z,16.20
2024-01-08T07:00:29.438Z,15.80
2024-01-08T07:02:56.430Z,15.60
2024-01-08T07:05:23.176Z,15.50
2024-01-08T07:07:49.678Z,15.30
2024-01-08T07:10:16.169Z,15.60
2024-01-08T07:12:42.606Z,14.30
2024-01-08T07:15:09.097Z,14.00
2024-01-08T07:17:35.732Z,15.20
2024-01-08T07:20:03.598Z,14.30
2024-01-08T07:22:30.078Z,15.30
2024-01-08T07:24:56.558Z,13.10
2024-01-08T07:27:23.022Z,15.20
2024-01-08T07:29:49.641Z,14.60
2024-01-08T07:32:16.322Z,12.60
2024-01-08T07:34:45.804Z,13.00
2024-01-08T07:37:12.241Z,14.50
2024-01-08T07:39:38.938Z,13.30
2024-01-08T07:42:05.578Z,13.90
2024-01-08T07:44:32.063Z,14.00
2024-01-08T07:46:58.494Z,13.10
2024-01-08T07:49:25.270Z,12.10
2024-01-08T07:51:51.703Z,9.40
2024-01-08T07:54:18.122Z,11.50
2024-01-08T07:56:53.230Z,10.40
2024-01-08T07:59:26.426Z,10.80
2024-01-08T08:01:53.425Z,10.70
2024-01-08T08:04:20.021Z,10.80
2024-01-08T08:06:46.553Z,13.00
2024-01-08T08:09:13.006Z,10.40
2024-01-08T08:11:40.572Z,10.90
2024-01-08T08:14:07.171Z,12.70
2024-01-08T08:16:33.920Z,11.70
2024-01-08T08:19:00.534Z,10.90
2024-01-08T08:21:27.008Z,11.70
2024-01-08T08:23:53.560Z,11.20
2024-01-08T08:26:20.426Z,10.40
2024-01-08T08:28:47.094Z,12.10
2024-01-08T08:31:14.717Z,11.50
2024-01-08T08:33:42.978Z,11.30
2024-01-08T08:36:09.672Z,12.80
2024-01-08T08:38:38.649Z,11.40
2024-01-08T08:41:07.390Z,11.60
2024-01-08T08:43:35.116Z,11.10
2024-01-08T08:46:03.152Z,11.80
2024-01-08T08:48:30.063Z,10.40
2024-01-08T08:50:56.714Z,12.20
2024-01-08T08:53:23.210Z,11.90
2024-01-08T08:55:49.692Z,11.70
2024-01-08T08:58:16.154Z,11.30
2024-01-08T09:00:42.630Z,10.70
2024-01-08T09:03:09.638Z,10.40
2024-01-08T09:05:40.378Z,11.30
2024-01-08T09:08:10.353Z,11.90
2024-01-08T09:10:36.935Z,8.40
2024-01-08T09:13:03.604Z,9.80
2024-01-08T09:15:30.579Z,9.20
2024-01-08T09:17:57.287Z,8.30
2024-01-08T09:20:24.379Z,8.70
2024-01-08T09:22:50.832Z,9.20
2024-01-08T09:25:17.331Z,11.20
2024-01-08T09:27:43.916Z,10.80
2024-01-08T09:30:10.697Z,9.90
2024-01-08T09:32:37.311Z,11.10
2024-01-08T09:35:04.167Z,10.10
2024-01-08T09:37:30.630Z,9.90
2024-01-08T09:39:57.583Z,9.90
2024-01-08T09:42:24.834Z,10.40
2024-01-08T09:44:52.633Z,9.70
2024-01-08T09:47:19.065Z,8.40
2024-01-08T09:49:45.758Z,9.20
2024-01-08T09:52:13.753Z,9.20
2024-01-08T09:54:40.521Z,8.80
2024-01-08T09:57:06.992Z,10.70
2024-01-08T09:59:33.439Z,9.10
2024-01-08T10:01:59.944Z,8.60
2024-01-08T10:04:27.455Z,8.60
2024-01-08T10:07:08.679Z,8.70
2024-01-08T10:09:36.296Z,12.60
2024-01-08T10:12:03.846Z,8.30
2024-01-08T10:14:30.360Z,6.70
2024-01-08T10:17:01.913Z,8.70
2024-01-08T10:19:29.817Z,7.60
2024-01-08T10:22:09.956Z,9.70
2024-01-08T10:24:37.503Z,8.40
2024-01-08T10:27:05.002Z,8.00
2024-01-08T10:29:31.598Z,8.10
2024-01-08T10:31:58.282Z,8.00
2024-01-08T10:34:25.632Z,8.90
2024-01-08T10:36:52.069Z,9.00
2024-01-08T10:39:20.089Z,9.00
2024-01-08T10:41:48.360Z,10.30
2024-01-08T10:44:14.814Z,9.20
2024-01-08T10:46:57.302Z,7.40
2024-01-08T10:49:35.237Z,7.40
2024-01-08T10:52:01.743Z,7.90
2024-01-08T10:54:47.151Z,9.30
2024-01-08T10:57:13.645Z,11.10
2024-01-08T10:59:40.536Z,9.70
2024-01-08T11:02:07.562Z,10.60
2024-01-08T11:04:33.978Z,14.70
2024-01-08T11:07:02.977Z,10.80
2024-01-08T11:09:32.734Z,9.70
2024-01-08T11:12:00.486Z,10.30
2024-01-08T11:14:27.034Z,10.40
2024-01-08T11:16:53.510Z,9.70
2024-01-08T11:19:20.327Z,10.00
2024-01-08T11:21:49.200Z,9.60
2024-01-08T11:24:15.986Z,11.30
2024-01-08T11:26:46.030Z,9.70
2024-01-08T11:29:12.886Z,10.00
2024-01-08T11:31:52.460Z,8.90
2024-01-08T11:34:43.635Z,9.50
2024-01-08T11:37:39.236Z,10.00
2024-01-08T11:40:07.659Z,8.30
2024-01-08T11:42:34.178Z,8.30
2024-01-08T11:45:01.400Z,9.90
2024-01-08T11:47:28.124Z,7.40
2024-01-08T11:49:54.633Z,9.40
2024-01-08T11:52:21.218Z,8.70
2024-01-08T11:54:49.863Z,9.30
2024-01-08T11:57:17.774Z,9.70
2024-01-08T11:59:44.584Z,8.90
2024-01-08T12:02:18.943Z,14.40
2024-01-08T12:04:59.102Z,12.10
2024-01-08T12:07:29.244Z,11.40
2024-01-08T12:09:56.512Z,10.50
2024-01-08T12:12:26.138Z,10.60
2024-01-08T12:14:53.084Z,10.10
2024-01-08T12:17:20.231Z,10.60
2024-01-08T12:19:51.639Z,12.40
2024-01-08T12:22:18.481Z,11.50
2024-01-08T12:24:48.882Z,10.10
2024-01-08T12:27:16.469Z,10.70
2024-01-08T12:29:43.942Z,11.30
2024-01-08T12:32:11.284Z,11.30
2024-01-08T12:34:43.816Z,10.00
2024-01-08T12:37:12.778Z,9.70
2024-01-08T12:39:39.252Z,9.70
2024-01-08T12:42:16.835Z,9.20
2024-01-08T12:44:48.792Z,8.50
2024-01-08T12:47:15.468Z,9.60
2024-01-08T12:49:42.040Z,8.90
2024-01-08T12:52:11.334Z,8.90
2024-01-08T12:54:40.564Z,9.00
2024-01-08T12:57:07.278Z,8.10
2024-01-08T12:59:35.808Z,7.80
2024-01-08T13:02:03.218Z,8.10
2024-01-08T13:04:29.813Z,8.50
2024-01-08T13:06:56.694Z,22.00
2024-01-08T13:09:23.488Z,14.90
2024-01-08T13:11:50.057Z,20.40
2024-01-08T13:14:17.371Z,15.60
2024-01-08T13:16:45.221Z,14.90
2024-01-08T13:19:12.028Z,14.50
2024-01-08T13:21:43.372Z,15.50
2024-01-08T13:24:11.227Z,17.30
2024-01-08T13:26:41.277Z,18.30
2024-01-08T13:29:10.670Z,17.40
2024-01-08T13:31:40.004Z,14.00
2024-01-08T13:34:07.629Z,20.00
2024-01-08T13:36:34.913Z,19.60
2024-01-08T13:39:01.430Z,20.00
2024-01-08T13:41:28.093Z,17.90
2024-01-08T13:43:54.605Z,19.50
2024-01-08T13:46:21.137Z,21.10
2024-01-08T13:48:47.754Z,22.50
2024-01-08T13:51:14.711Z,20.00
2024-01-08T13:53:41.981Z,24.70
2024-01-08T13:56:08.466Z,21.40
2024-01-08T13:58:34.889Z,21.80
2024-01-08T14:01:01.579Z,17.80
2024-01-08T14:03:28.127Z,21.50
2024-01-08T14:05:54.887Z,18.90
2024-01-08T14:08:21.497Z,17.70
2024-01-08T14:10:48.024Z,16.30
2024-01-08T14:13:14.669Z,15.70
2024-01-08T14:15:41.156Z,16.10
2024-01-08T14:18:07.866Z,17.50
2024-01-08T14:20:34.480Z,15.70
2024-01-08T14:23:00.988Z,16.50
2024-01-08T14:25:27.420Z,15.90
2024-01-08T14:27:54.972Z,15.40
2024-01-08T14:30:21.541Z,15.30
2024-01-08T14:32:48.174Z,14.10
2024-01-08T14:35:14.837Z,14.30
2024-01-08T14:37:42.319Z,14.10
2024-01-08T14:40:10.937Z,13.60
2024-01-08T14:42:40.208Z,26.70
2024-01-08T14:45:07.945Z,32.50
2024-01-08T14:47:35.015Z,60.00
2024-01-08T14:50:02.100Z,36.70
2024-01-08T14:52:28.652Z,31.00
2024-01-08T14:54:55.076Z,34.60
2024-01-08T14:57:21.492Z,35.10
2024-01-08T14:59:47.948Z,38.60
2024-01-08T15:02:14.452Z,36.10
2024-01-08T15:04:40.977Z,38.00
2024-01-08T15:07:09.383Z,39.50
2024-01-08T15:09:36.364Z,47.70
2024-01-08T15:12:03.082Z,38.30
2024-01-08T15:14:29.804Z,30.00
2024-01-08T15:16:56.292Z,25.10
2024-01-08T15:19:23.280Z,25.60
2024-01-08T15:21:52.837Z,21.70
2024-01-08T15:24:19.739Z,25.00
2024-01-08T15:26:46.256Z,26.50
2024-01-08T15:29:13.125Z,23.80
2024-01-08T15:31:39.659Z,28.60
2024-01-08T15:34:06.257Z,42.50
2024-01-08T15:36:32.787Z,52.00
2024-01-08T15:38:59.203Z,49.10
2024-01-08T15:41:25.761Z,50.90
2024-01-08T15:43:52.227Z,49.30
2024-01-08T15:46:18.731Z,41.50
2024-01-08T15:48:46.603Z,37.00
2024-01-08T15:51:13.349Z,35.60
2024-01-08T15:53:40.082Z,34.00
2024-01-08T15:56:06.952Z,35.60
2024-01-08T15:58:33.493Z,32.80
2024-01-08T16:01:00.005Z,34.10
2024-01-08T16:03:26.567Z,34.10
2024-01-08T16:05:53.346Z,33.40
2024-01-08T16:08:20.437Z,55.30
2024-01-08T16:10:47.009Z,46.00
2024-01-08T16:13:13.637Z,40.00
2024-01-08T16:15:41.464Z,43.10
2024-01-08T16:18:08.008Z,40.90
2024-01-08T16:20:34.738Z,42.40
2024-01-08T16:23:01.237Z,36.90
2024-01-08T16:25:27.763Z,40.50
2024-01-08T16:27:54.277Z,42.20
2024-01-08T16:30:20.889Z,43.70
2024-01-08T16:32:47.572Z,42.50
2024-01-08T16:35:14.840Z,45.80
2024-01-08T16:37:43.311Z,38.60
2024-01-08T16:40:10.939Z,32.00
2024-01-08T16:42:37.403Z,29.80
2024-01-08T16:45:04.133Z,28.90
2024-01-08T16:49:57.894Z,31.30
2024-01-08T16:52:24.558Z,35.30
2024-01-08T16:54:51.032Z,34.60
2024-01-08T16:57:18.198Z,35.10
2024-01-08T16:59:46.540Z,35.80
2024-01-08T17:02:13.391Z,35.20
2024-01-08T17:04:43.208Z,34.20
2024-01-08T17:07:09.685Z,34.10
2024-01-08T17:09:40.727Z,32.30
2024-01-08T17:12:08.099Z,31.80
2024-01-08T17:14:34.562Z,34.10
2024-01-08T17:17:01.092Z,32.80
2024-01-08T17:19:27.593Z,33.90
2024-01-08T17:21:54.053Z,33.80
2024-01-08T17:24:20.593Z,35.00
2024-01-08T17:26:47.051Z,34.10
2024-01-08T17:29:14.853Z,36.50
2024-01-08T17:31:41.376Z,35.20
2024-01-08T17:34:07.998Z,34.30
2024-01-08T17:36:34.539Z,31.80
2024-01-08T17:39:00.943Z,36.10
2024-01-08T17:41:29.668Z,34.80
2024-01-08T17:43:56.180Z,33.50
2024-01-08T17:46:22.913Z,34.10
2024-01-08T17:48:49.549Z,37.30
2024-01-08T17:51:16.080Z,34.70
2024-01-08T17:53:42.681Z,35.10
2024-01-08T17:56:10.756Z,35.00
2024-01-08T17:58:37.662Z,34.70
2024-01-08T18:01:05.080Z,36.80
2024-01-08T18:03:31.874Z,36.20
2024-01-08T18:05:59.997Z,42.10
2024-01-08T18:08:32.596Z,38.90
2024-01-08T18:10:59.470Z,42.60
2024-01-08T18:13:25.884Z,41.80
2024-01-08T18:15:52.586Z,43.30
2024-01-08T18:18:19.071Z,42.50
2024-01-08T18:20:45.713Z,41.50
2024-01-08T18:23:12.453Z,43.20
2024-01-08T18:25:39.535Z,43.20
2024-01-08T18:28:06.227Z,42.00
2024-01-08T18:30:32.730Z,42.50
2024-01-08T18:32:59.428Z,41.50
2024-01-08T18:35:26.902Z,44.00
2024-01-08T18:37:53.362Z,42.10
2024-01-08T18:40:19.836Z,44.60
2024-01-08T18:42:46.338Z,43.10
2024-01-08T18:45:13.158Z,41.00
2024-01-08T18:47:39.813Z,44.80
2024-01-08T18:50:07.165Z,40.40
2024-01-08T18:52:33.746Z,42.30
2024-01-08T18:55:00.251Z,42.20
2024-01-08T18:57:27.399Z,41.00
2024-01-08T18:59:53.936Z,43.70
2024-01-08T19:02:20.443Z,41.10
2024-01-08T19:04:46.934Z,41.20
2024-01-08T19:07:14.048Z,41.50
2024-01-08T19:09:40.563Z,41.70
2024-01-08T19:12:08.626Z,46.50
2024-01-08T19:14:35.071Z,40.30
2024-01-08T19:17:01.646Z,42.00
2024-01-08T19:19:29.360Z,41.20
2024-01-08T19:21:55.909Z,41.60
2024-01-08T19:24:23.988Z,40.20
2024-01-08T19:26:51.306Z,38.90
2024-01-08T19:29:17.880Z,42.30
2024-01-08T19:31:46.684Z,41.40
2024-01-08T19:34:13.272Z,43.10
2024-01-08T19:36:39.745Z,37.30
2024-01-08T19:39:06.245Z,36.20
2024-01-08T19:41:33.520Z,38.20
2024-01-08T19:44:00.122Z,36.70
2024-01-08T19:46:26.647Z,34.50
2024-01-08T19:48:53.142Z,36.50
2024-01-08T19:51:19.765Z,33.50
2024-01-08T19:53:47.083Z,39.20
2024-01-08T19:56:15.442Z,34.10
2024-01-08T19:58:45.572Z,36.10
2024-01-08T20:01:12.155Z,35.70
2024-01-08T20:03:39.152Z,34.70
2024-01-08T20:06:06.666Z,34.30
2024-01-08T20:08:33.234Z,34.30
2024-01-08T20:10:59.747Z,34.70
2024-01-08T20:13:26.562Z,34.00
2024-01-08T20:15:53.092Z,34.00
2024-01-08T20:18:19.693Z,35.60
2024-01-08T20:20:46.420Z,34.30
2024-01-08T20:23:13.324Z,35.20
2024-01-08T20:25:39.851Z,33.20
2024-01-08T20:28:06.487Z,34.50
2024-01-08T20:30:33.197Z,33.60
2024-01-08T20:32:59.818Z,32.30
2024-01-08T20:35:26.402Z,33.50
2024-01-08T20:37:52.854Z,33.50
2024-01-08T20:40:19.328Z,35.00
2024-01-08T20:42:45.771Z,32.60
2024-01-08T20:45:12.174Z,32.90
2024-01-08T20:47:38.805Z,30.50
2024-01-08T20:50:06.011Z,30.60
2024-01-08T20:52:32.562Z,32.60
2024-01-08T20:54:58.967Z,34.40
2024-01-08T20:57:25.410Z,31.50
2024-01-08T20:59:51.970Z,32.50
2024-01-08T21:02:18.442Z,31.20
2024-01-08T21:04:48.945Z,32.00
2024-01-08T21:07:15.354Z,31.70
2024-01-08T21:09:41.790Z,33.80
2024-01-08T21:12:08.383Z,36.20
2024-01-08T21:14:34.831Z,40.70
2024-01-08T21:17:01.252Z,39.00
2024-01-08T21:19:28.480Z,37.10
2024-01-08T21:21:55.095Z,39.90
2024-01-08T21:24:23.992Z,40.00
2024-01-08T21:26:51.376Z,42.60
2024-01-08T21:29:17.970Z,43.10
2024-01-08T21:31:50.361Z,42.90
2024-01-08T21:34:17.252Z,42.60
2024-01-08T21:36:43.766Z,44.20
2024-01-08T21:39:12.103Z,42.90
2024-01-08T21:41:40.283Z,44.40
2024-01-08T21:44:06.773Z,43.60
2024-01-08T21:46:33.239Z,45.60
2024-01-08T21:49:00.479Z,44.20
2024-01-08T21:51:26.990Z,45.70
2024-01-08T21:53:53.518Z,46.30
2024-01-08T21:56:20.967Z,45.10
2024-01-08T21:58:47.432Z,43.80
2024-01-08T22:01:13.901Z,42.30
2024-01-08T22:03:40.380Z,41.40
2024-01-08T22:06:06.954Z,43.30
2024-01-08T22:08:33.497Z,42.60
2024-01-08T22:11:00.220Z,47.30
2024-01-08T22:13:27.118Z,46.90
2024-01-08T22:15:53.608Z,46.10
2024-01-08T22:18:20.101Z,44.90
2024-01-08T22:20:46.629Z,43.30
2024-01-08T22:23:13.112Z,45.80
2024-01-08T22:25:39.682Z,45.80
2024-01-08T22:28:06.571Z,46.20
2024-01-08T22:30:33.085Z,46.10
2024-01-08T22:33:00.090Z,51.10
2024-01-08T22:35:26.864Z,46.70
2024-01-08T22:37:53.438Z,50.00
2024-01-08T22:40:20.125Z,49.20
2024-01-08T22:42:46.614Z,43.60
2024-01-08T22:45:13.112Z,41.60
2024-01-08T22:47:39.737Z,40.80
2024-01-08T22:50:06.907Z,40.70
2024-01-08T22:52:33.415Z,39.00
2024-01-08T22:54:59.912Z,39.30
2024-01-08T22:57:26.506Z,41.90
2024-01-08T22:59:53.028Z,39.50
2024-01-08T23:02:19.606Z,41.40
2024-01-08T23:04:46.779Z,42.60
2024-01-08T23:07:13.300Z,42.90
2024-01-08T23:09:39.794Z,41.40
2024-01-08T23:12:06.858Z,42.50
2024-01-08T23:14:33.350Z,42.50
2024-01-08T23:16:59.859Z,48.50
2024-01-08T23:19:26.409Z,48.50
2024-01-08T23:21:52.883Z,50.50
2024-01-08T23:24:19.323Z,40.30
2024-01-08T23:26:46.285Z,41.70
2024-01-08T23:29:13.331Z,40.70
2024-01-08T23:31:39.985Z,40.70
2024-01-08T23:34:13.803Z,45.80
2024-01-08T23:36:44.678Z,48.70
2024-01-08T23:39:11.142Z,51.30
2024-01-08T23:41:37.599Z,47.30
2024-01-08T23:44:04.118Z,47.00
2024-01-08T23:46:30.678Z,48.20
2024-01-08T23:48:57.223Z,40.20
2024-01-08T23:51:23.678Z,46.50
2024-01-08T23:53:50.240Z,38.90
2024-01-08T23:56:16.741Z,43.30
2024-01-08T23:58:44.526Z,40.80
